sensor_id;sensor_type;location;lat;lon;timestamp;temperature;humidity
6724;DHT22;3399;52.530;13.304;2023-07-08T00:00:17;20.30;95.40
6724;DHT22;3399;52.530;13.304;2023-07-08T00:02:43;20.20;96.40
6724;DHT22;3399;52.530;13.304;2023-07-08T00:05:14;20.10;96.80
6724;DHT22;3399;52.530;13.304;2023-07-08T00:07:41;20.00;97.70
6724;DHT22;3399;52.530;13.304;2023-07-08T00:10:18;20.00;98.40
6724;DHT22;3399;52.530;13.304;2023-07-08T00:12:47;20.00;98.40
6724;DHT22;3399;52.530;13.304;2023-07-08T00:15:13;20.00;98.60
6724;DHT22;3399;52.530;13.304;2023-07-08T00:17:38;20.00;99.30
6724;DHT22;3399;52.530;13.304;2023-07-08T00:23:24;19.90;99.40
6724;DHT22;3399;52.530;13.304;2023-07-08T00:25:49;19.90;99.30
6724;DHT22;3399;52.530;13.304;2023-07-08T00:28:18;19.80;98.70
6724;DHT22;3399;52.530;13.304;2023-07-08T00:30:44;19.70;99.30
6724;DHT22;3399;52.530;13.304;2023-07-08T00:33:10;19.70;99.30
6724;DHT22;3399;52.530;13.304;2023-07-08T00:35:38;19.70;99.10
6724;DHT22;3399;52.530;13.304;2023-07-08T00:41:06;19.60;99.90
6724;DHT22;3399;52.530;13.304;2023-07-08T00:51:43;19.40;99.90
6724;DHT22;3399;52.530;13.304;2023-07-08T00:54:14;19.40;99.90
6724;DHT22;3399;52.530;13.304;2023-07-08T00:56:58;19.20;99.90
6724;DHT22;3399;52.530;13.304;2023-07-08T00:59:26;19.10;99.90
6724;DHT22;3399;52.530;13.304;2023-07-08T01:01:54;19.10;99.90
6724;DHT22;3399;52.530;13.304;2023-07-08T01:04:48;19.10;99.90
6724;DHT22;3399;52.530;13.304;2023-07-08T01:07:15;19.10;99.90
6724;DHT22;3399;52.530;13.304;2023-07-08T01:09:48;19.00;99.90
6724;DHT22;3399;52.530;13.304;2023-07-08T01:12:25;19.00;99.90
6724;DHT22;3399;52.530;13.304;2023-07-08T01:14:52;19.00;99.90
6724;DHT22;3399;52.530;13.304;2023-07-08T01:17:20;18.90;99.90
6724;DHT22;3399;52.530;13.304;2023-07-08T01:19:47;18.90;99.90
6724;DHT22;3399;52.530;13.304;2023-07-08T01:22:14;18.90;99.90
6724;DHT22;3399;52.530;13.304;2023-07-08T01:24:43;18.90;99.90
6724;DHT22;3399;52.530;13.304;2023-07-08T01:27:12;18.90;99.90
6724;DHT22;3399;52.530;13.304;2023-07-08T01:29:38;18.90;99.90
6724;DHT22;3399;52.530;13.304;2023-07-08T01:32:04;18.90;99.90
6724;DHT22;3399;52.530;13.304;2023-07-08T01:34:31;18.80;99.90
6724;DHT22;3399;52.530;13.304;2023-07-08T01:36:59;18.70;99.90
6724;DHT22;3399;52.530;13.304;2023-07-08T01:39:28;18.70;99.90
6724;DHT22;3399;52.530;13.304;2023-07-08T01:41:55;18.70;99.90
6724;DHT22;3399;52.530;13.304;2023-07-08T01:44:29;18.60;99.90
6724;DHT22;3399;52.530;13.304;2023-07-08T01:47:19;18.60;99.90
6724;DHT22;3399;52.530;13.304;2023-07-08T01:49:47;18.60;99.90
6724;DHT22;3399;52.530;13.304;2023-07-08T01:52:15;18.50;99.90
6724;DHT22;3399;52.530;13.304;2023-07-08T01:54:42;18.60;99.90
6724;DHT22;3399;52.530;13.304;2023-07-08T01:57:07;18.50;99.90
6724;DHT22;3399;52.530;13.304;2023-07-08T01:59:33;18.40;99.90
6724;DHT22;3399;52.530;13.304;2023-07-08T02:01:58;18.40;99.90
6724;DHT22;3399;52.530;13.304;2023-07-08T02:04:25;18.30;99.90
6724;DHT22;3399;52.530;13.304;2023-07-08T02:06:57;18.30;99.90
6724;DHT22;3399;52.530;13.304;2023-07-08T02:09:23;18.30;99.90
6724;DHT22;3399;52.530;13.304;2023-07-08T02:11:50;18.20;99.90
6724;DHT22;3399;52.530;13.304;2023-07-08T02:14:16;18.20;99.90
6724;DHT22;3399;52.530;13.304;2023-07-08T02:16:41;18.10;99.90
6724;DHT22;3399;52.530;13.304;2023-07-08T02:19:07;18.10;99.90
6724;DHT22;3399;52.530;13.304;2023-07-08T02:21:32;18.10;99.90
6724;DHT22;3399;52.530;13.304;2023-07-08T02:24:00;18.10;99.90
6724;DHT22;3399;52.530;13.304;2023-07-08T02:26:25;18.10;99.90
6724;DHT22;3399;52.530;13.304;2023-07-08T02:28:51;18.00;99.90
6724;DHT22;3399;52.530;13.304;2023-07-08T02:31:17;18.00;99.90
6724;DHT22;3399;52.530;13.304;2023-07-08T02:33:42;18.00;99.90
6724;DHT22;3399;52.530;13.304;2023-07-08T02:36:08;18.00;99.90
6724;DHT22;3399;52.530;13.304;2023-07-08T02:38:33;17.90;99.90
6724;DHT22;3399;52.530;13.304;2023-07-08T02:41:00;17.90;99.90
6724;DHT22;3399;52.530;13.304;2023-07-08T02:43:25;17.80;99.90
6724;DHT22;3399;52.530;13.304;2023-07-08T02:45:52;17.90;99.90
6724;DHT22;3399;52.530;13.304;2023-07-08T02:48:18;18.00;99.90
6724;DHT22;3399;52.530;13.304;2023-07-08T02:50:44;17.90;99.90
6724;DHT22;3399;52.530;13.304;2023-07-08T02:53:09;17.90;99.90
6724;DHT22;3399;52.530;13.304;2023-07-08T02:55:35;17.80;99.90
6724;DHT22;3399;52.530;13.304;2023-07-08T02:58:00;17.80;99.90
6724;DHT22;3399;52.530;13.304;2023-07-08T03:00:26;17.80;99.90
6724;DHT22;3399;52.530;13.304;2023-07-08T03:02:51;17.80;99.90
6724;DHT22;3399;52.530;13.304;2023-07-08T03:05:17;17.70;99.90
6724;DHT22;3399;52.530;13.304;2023-07-08T03:07:42;17.70;99.90
6724;DHT22;3399;52.530;13.304;2023-07-08T03:10:08;17.70;99.90
6724;DHT22;3399;52.530;13.304;2023-07-08T03:12:34;17.70;99.90
6724;DHT22;3399;52.530;13.304;2023-07-08T03:14:59;17.70;99.90
6724;DHT22;3399;52.530;13.304;2023-07-08T03:17:25;17.70;99.90
6724;DHT22;3399;52.530;13.304;2023-07-08T03:19:51;17.70;99.90
6724;DHT22;3399;52.530;13.304;2023-07-08T03:22:16;17.70;99.90
6724;DHT22;3399;52.530;13.304;2023-07-08T03:24:42;17.80;99.90
6724;DHT22;3399;52.530;13.304;2023-07-08T03:27:12;17.80;99.90
6724;DHT22;3399;52.530;13.304;2023-07-08T03:29:37;17.80;99.90
6724;DHT22;3399;52.530;13.304;2023-07-08T03:32:04;17.80;99.90
6724;DHT22;3399;52.530;13.304;2023-07-08T03:34:29;17.80;99.90
6724;DHT22;3399;52.530;13.304;2023-07-08T03:36:55;17.90;99.90
6724;DHT22;3399;52.530;13.304;2023-07-08T03:39:22;17.80;99.90
6724;DHT22;3399;52.530;13.304;2023-07-08T03:41:51;17.80;99.90
6724;DHT22;3399;52.530;13.304;2023-07-08T03:44:17;17.80;99.90
6724;DHT22;3399;52.530;13.304;2023-07-08T03:46:47;17.80;99.90
6724;DHT22;3399;52.530;13.304;2023-07-08T03:49:20;17.90;99.90
6724;DHT22;3399;52.530;13.304;2023-07-08T03:51:50;17.90;99.90
6724;DHT22;3399;52.530;13.304;2023-07-08T03:54:18;18.10;99.90
6724;DHT22;3399;52.530;13.304;2023-07-08T03:56:44;18.00;99.90
6724;DHT22;3399;52.530;13.304;2023-07-08T03:59:10;18.00;99.90
6724;DHT22;3399;52.530;13.304;2023-07-08T04:01:36;18.00;99.90
6724;DHT22;3399;52.530;13.304;2023-07-08T04:04:04;18.00;99.90
6724;DHT22;3399;52.530;13.304;2023-07-08T04:06:29;18.00;99.90
6724;DHT22;3399;52.530;13.304;2023-07-08T04:08:55;18.00;99.90
6724;DHT22;3399;52.530;13.304;2023-07-08T04:11:22;17.90;99.90
6724;DHT22;3399;52.530;13.304;2023-07-08T04:13:48;17.80;99.90
6724;DHT22;3399;52.530;13.304;2023-07-08T04:16:21;17.80;99.90
6724;DHT22;3399;52.530;13.304;2023-07-08T04:18:47;17.90;99.90
6724;DHT22;3399;52.530;13.304;2023-07-08T04:21:17;17.90;99.90
6724;DHT22;3399;52.530;13.304;2023-07-08T04:23:43;17.90;99.90
6724;DHT22;3399;52.530;13.304;2023-07-08T04:26:09;18.00;99.90
6724;DHT22;3399;52.530;13.304;2023-07-08T04:28:35;18.00;99.90
6724;DHT22;3399;52.530;13.304;2023-07-08T04:31:01;17.90;99.90
6724;DHT22;3399;52.530;13.304;2023-07-08T04:33:27;18.00;99.90
6724;DHT22;3399;52.530;13.304;2023-07-08T04:35:53;18.00;99.90
6724;DHT22;3399;52.530;13.304;2023-07-08T04:38:21;18.00;99.90
6724;DHT22;3399;52.530;13.304;2023-07-08T04:40:48;18.00;99.90
6724;DHT22;3399;52.530;13.304;2023-07-08T04:43:14;18.00;99.90
6724;DHT22;3399;52.530;13.304;2023-07-08T04:45:41;18.00;99.90
6724;DHT22;3399;52.530;13.304;2023-07-08T04:48:12;18.00;99.90
6724;DHT22;3399;52.530;13.304;2023-07-08T04:50:42;18.10;99.90
6724;DHT22;3399;52.530;13.304;2023-07-08T04:53:09;18.10;99.90
6724;DHT22;3399;52.530;13.304;2023-07-08T04:55:36;18.10;99.90
6724;DHT22;3399;52.530;13.304;2023-07-08T04:58:03;18.10;99.90
6724;DHT22;3399;52.530;13.304;2023-07-08T05:00:29;18.30;99.90
6724;DHT22;3399;52.530;13.304;2023-07-08T05:02:54;18.30;99.90
6724;DHT22;3399;52.530;13.304;2023-07-08T05:05:20;18.40;99.90
6724;DHT22;3399;52.530;13.304;2023-07-08T05:07:46;18.40;99.90
6724;DHT22;3399;52.530;13.304;2023-07-08T05:10:15;18.50;99.90
6724;DHT22;3399;52.530;13.304;2023-07-08T05:12:41;18.50;99.90
6724;DHT22;3399;52.530;13.304;2023-07-08T05:15:07;18.60;99.90
6724;DHT22;3399;52.530;13.304;2023-07-08T05:17:32;18.80;99.90
6724;DHT22;3399;52.530;13.304;2023-07-08T05:19:58;18.90;99.90
6724;DHT22;3399;52.530;13.304;2023-07-08T05:22:26;18.90;99.90
6724;DHT22;3399;52.530;13.304;2023-07-08T05:24:53;19.00;99.90
6724;DHT22;3399;52.530;13.304;2023-07-08T05:27:21;19.00;99.90
6724;DHT22;3399;52.530;13.304;2023-07-08T05:29:47;19.10;99.90
6724;DHT22;3399;52.530;13.304;2023-07-08T05:32:13;19.10;99.90
6724;DHT22;3399;52.530;13.304;2023-07-08T05:34:38;19.20;99.90
6724;DHT22;3399;52.530;13.304;2023-07-08T05:37:04;19.30;99.90
6724;DHT22;3399;52.530;13.304;2023-07-08T05:39:31;19.40;99.90
6724;DHT22;3399;52.530;13.304;2023-07-08T05:41:56;19.50;99.90
6724;DHT22;3399;52.530;13.304;2023-07-08T05:44:22;19.50;99.90
6724;DHT22;3399;52.530;13.304;2023-07-08T05:46:48;19.60;99.90
6724;DHT22;3399;52.530;13.304;2023-07-08T05:49:14;19.70;99.90
6724;DHT22;3399;52.530;13.304;2023-07-08T05:51:39;19.70;99.90
6724;DHT22;3399;52.530;13.304;2023-07-08T05:54:05;19.80;99.90
6724;DHT22;3399;52.530;13.304;2023-07-08T05:56:30;19.90;99.90
6724;DHT22;3399;52.530;13.304;2023-07-08T05:58:56;20.00;99.90
6724;DHT22;3399;52.530;13.304;2023-07-08T06:01:21;20.10;99.90
6724;DHT22;3399;52.530;13.304;2023-07-08T06:03:47;20.20;99.90
6724;DHT22;3399;52.530;13.304;2023-07-08T06:06:13;20.30;99.80
6724;DHT22;3399;52.530;13.304;2023-07-08T06:08:39;20.50;99.80
6724;DHT22;3399;52.530;13.304;2023-07-08T06:11:04;20.60;99.40
6724;DHT22;3399;52.530;13.304;2023-07-08T06:13:30;20.80;99.10
6724;DHT22;3399;52.530;13.304;2023-07-08T06:15:56;20.90;99.10
6724;DHT22;3399;52.530;13.304;2023-07-08T06:18:21;21.00;98.70
6724;DHT22;3399;52.530;13.304;2023-07-08T06:20:54;21.10;98.70
6724;DHT22;3399;52.530;13.304;2023-07-08T06:23:20;21.20;98.00
6724;DHT22;3399;52.530;13.304;2023-07-08T06:25:46;21.20;97.60
6724;DHT22;3399;52.530;13.304;2023-07-08T06:28:11;21.40;96.60
6724;DHT22;3399;52.530;13.304;2023-07-08T06:30:37;21.60;96.30
6724;DHT22;3399;52.530;13.304;2023-07-08T06:33:03;21.60;96.60
6724;DHT22;3399;52.530;13.304;2023-07-08T06:35:29;21.60;96.80
6724;DHT22;3399;52.530;13.304;2023-07-08T06:37:54;21.60;97.00
6724;DHT22;3399;52.530;13.304;2023-07-08T06:40:20;21.60;96.80
6724;DHT22;3399;52.530;13.304;2023-07-08T06:42:46;21.60;96.40
6724;DHT22;3399;52.530;13.304;2023-07-08T06:45:11;21.80;95.70
6724;DHT22;3399;52.530;13.304;2023-07-08T06:47:37;21.80;95.70
6724;DHT22;3399;52.530;13.304;2023-07-08T06:50:02;22.00;95.10
6724;DHT22;3399;52.530;13.304;2023-07-08T06:52:28;22.20;95.00
6724;DHT22;3399;52.530;13.304;2023-07-08T06:55:04;22.30;94.90
6724;DHT22;3399;52.530;13.304;2023-07-08T06:57:29;22.30;94.70
6724;DHT22;3399;52.530;13.304;2023-07-08T06:59:55;22.50;94.50
6724;DHT22;3399;52.530;13.304;2023-07-08T07:02:20;22.60;94.30
6724;DHT22;3399;52.530;13.304;2023-07-08T07:04:46;22.70;94.10
6724;DHT22;3399;52.530;13.304;2023-07-08T07:07:12;22.70;94.40
6724;DHT22;3399;52.530;13.304;2023-07-08T07:09:37;22.80;94.30
6724;DHT22;3399;52.530;13.304;2023-07-08T07:12:05;22.90;93.90
6724;DHT22;3399;52.530;13.304;2023-07-08T07:14:30;23.00;93.30
6724;DHT22;3399;52.530;13.304;2023-07-08T07:16:56;23.10;92.50
6724;DHT22;3399;52.530;13.304;2023-07-08T07:19:21;23.20;93.30
6724;DHT22;3399;52.530;13.304;2023-07-08T07:21:47;23.20;93.20
6724;DHT22;3399;52.530;13.304;2023-07-08T07:24:12;23.20;92.90
6724;DHT22;3399;52.530;13.304;2023-07-08T07:26:38;23.20;92.90
6724;DHT22;3399;52.530;13.304;2023-07-08T07:29:04;23.40;92.90
6724;DHT22;3399;52.530;13.304;2023-07-08T07:31:29;23.40;91.90
6724;DHT22;3399;52.530;13.304;2023-07-08T07:33:56;23.50;91.00
6724;DHT22;3399;52.530;13.304;2023-07-08T07:36:22;23.70;91.00
6724;DHT22;3399;52.530;13.304;2023-07-08T07:38:47;23.70;91.20
6724;DHT22;3399;52.530;13.304;2023-07-08T07:41:13;23.60;91.90
6724;DHT22;3399;52.530;13.304;2023-07-08T07:43:38;23.70;91.20
6724;DHT22;3399;52.530;13.304;2023-07-08T07:46:04;23.80;91.00
6724;DHT22;3399;52.530;13.304;2023-07-08T07:48:31;24.00;91.10
6724;DHT22;3399;52.530;13.304;2023-07-08T07:50:57;24.00;90.30
6724;DHT22;3399;52.530;13.304;2023-07-08T07:53:22;24.10;90.40
6724;DHT22;3399;52.530;13.304;2023-07-08T07:55:55;24.20;90.30
6724;DHT22;3399;52.530;13.304;2023-07-08T07:58:20;24.20;90.10
6724;DHT22;3399;52.530;13.304;2023-07-08T08:00:46;24.20;91.00
6724;DHT22;3399;52.530;13.304;2023-07-08T08:03:11;24.20;90.80
6724;DHT22;3399;52.530;13.304;2023-07-08T08:05:37;24.30;90.90
6724;DHT22;3399;52.530;13.304;2023-07-08T08:08:03;24.30;90.80
6724;DHT22;3399;52.530;13.304;2023-07-08T08:10:29;24.40;90.80
6724;DHT22;3399;52.530;13.304;2023-07-08T08:12:55;24.40;90.30
6724;DHT22;3399;52.530;13.304;2023-07-08T08:15:22;24.40;89.80
6724;DHT22;3399;52.530;13.304;2023-07-08T08:17:47;24.60;90.50
6724;DHT22;3399;52.530;13.304;2023-07-08T08:20:14;24.80;90.40
6724;DHT22;3399;52.530;13.304;2023-07-08T08:22:40;24.60;90.90
6724;DHT22;3399;52.530;13.304;2023-07-08T08:25:05;24.70;90.20
6724;DHT22;3399;52.530;13.304;2023-07-08T08:27:31;24.70;89.60
6724;DHT22;3399;52.530;13.304;2023-07-08T08:29:57;24.80;88.70
6724;DHT22;3399;52.530;13.304;2023-07-08T08:32:23;25.00;87.70
6724;DHT22;3399;52.530;13.304;2023-07-08T08:34:48;25.20;88.40
6724;DHT22;3399;52.530;13.304;2023-07-08T08:37:14;25.10;86.50
6724;DHT22;3399;52.530;13.304;2023-07-08T08:39:39;25.20;87.00
6724;DHT22;3399;52.530;13.304;2023-07-08T08:44:53;25.10;86.50
6724;DHT22;3399;52.530;13.304;2023-07-08T08:47:29;25.10;82.80
6724;DHT22;3399;52.530;13.304;2023-07-08T08:50:18;25.20;85.90
6724;DHT22;3399;52.530;13.304;2023-07-08T08:52:45;25.20;85.30
6724;DHT22;3399;52.530;13.304;2023-07-08T08:55:12;25.40;86.50
6724;DHT22;3399;52.530;13.304;2023-07-08T08:58:14;25.40;86.10
6724;DHT22;3399;52.530;13.304;2023-07-08T09:00:55;25.60;83.80
6724;DHT22;3399;52.530;13.304;2023-07-08T09:06:21;25.60;82.60
6724;DHT22;3399;52.530;13.304;2023-07-08T09:08:49;25.60;85.50
6724;DHT22;3399;52.530;13.304;2023-07-08T09:11:42;25.60;81.00
6724;DHT22;3399;52.530;13.304;2023-07-08T09:14:23;25.80;83.20
6724;DHT22;3399;52.530;13.304;2023-07-08T09:20:17;25.60;78.50
6724;DHT22;3399;52.530;13.304;2023-07-08T09:23:03;25.40;83.20
6724;DHT22;3399;52.530;13.304;2023-07-08T09:25:34;25.40;99.90
6724;DHT22;3399;52.530;13.304;2023-07-08T09:28:00;24.10;99.90
6724;DHT22;3399;52.530;13.304;2023-07-08T09:30:26;23.30;99.90
6724;DHT22;3399;52.530;13.304;2023-07-08T09:32:54;22.30;99.90
6724;DHT22;3399;52.530;13.304;2023-07-08T09:35:24;21.90;99.90
6724;DHT22;3399;52.530;13.304;2023-07-08T09:37:50;21.20;99.90
6724;DHT22;3399;52.530;13.304;2023-07-08T09:40:22;20.90;99.90
6724;DHT22;3399;52.530;13.304;2023-07-08T09:42:54;20.50;99.90
6724;DHT22;3399;52.530;13.304;2023-07-08T09:45:23;20.70;99.90
6724;DHT22;3399;52.530;13.304;2023-07-08T09:47:54;20.70;99.90
6724;DHT22;3399;52.530;13.304;2023-07-08T09:50:28;20.40;99.90
6724;DHT22;3399;52.530;13.304;2023-07-08T09:52:56;21.30;93.70
6724;DHT22;3399;52.530;13.304;2023-07-08T09:55:26;21.30;99.90
6724;DHT22;3399;52.530;13.304;2023-07-08T09:57:54;21.10;99.90
6724;DHT22;3399;52.530;13.304;2023-07-08T10:00:39;20.70;99.90
6724;DHT22;3399;52.530;13.304;2023-07-08T10:03:30;21.10;96.50
6724;DHT22;3399;52.530;13.304;2023-07-08T10:05:58;22.20;91.00
6724;DHT22;3399;52.530;13.304;2023-07-08T10:08:36;23.50;82.70
6724;DHT22;3399;52.530;13.304;2023-07-08T10:13:55;23.60;93.00
6724;DHT22;3399;52.530;13.304;2023-07-08T10:16:36;23.20;82.00
6724;DHT22;3399;52.530;13.304;2023-07-08T10:19:16;23.00;88.50
6724;DHT22;3399;52.530;13.304;2023-07-08T10:30:24;24.10;82.70
6724;DHT22;3399;52.530;13.304;2023-07-08T10:41:35;24.60;83.50
6724;DHT22;3399;52.530;13.304;2023-07-08T10:44:48;25.10;70.10
6724;DHT22;3399;52.530;13.304;2023-07-08T10:53:16;25.80;66.00
6724;DHT22;3399;52.530;13.304;2023-07-08T10:55:56;26.60;61.60
6724;DHT22;3399;52.530;13.304;2023-07-08T11:01:20;25.80;67.50
6724;DHT22;3399;52.530;13.304;2023-07-08T11:03:59;25.60;79.30
6724;DHT22;3399;52.530;13.304;2023-07-08T11:06:48;25.60;74.30
6724;DHT22;3399;52.530;13.304;2023-07-08T11:09:24;26.30;73.80
6724;DHT22;3399;52.530;13.304;2023-07-08T11:11:55;25.80;77.00
6724;DHT22;3399;52.530;13.304;2023-07-08T11:14:42;26.10;76.40
6724;DHT22;3399;52.530;13.304;2023-07-08T11:17:24;26.40;61.90
6724;DHT22;3399;52.530;13.304;2023-07-08T11:20:02;26.80;73.30
6724;DHT22;3399;52.530;13.304;2023-07-08T11:22:32;27.30;67.90
6724;DHT22;3399;52.530;13.304;2023-07-08T11:25:01;27.20;72.30
6724;DHT22;3399;52.530;13.304;2023-07-08T11:27:36;27.40;68.10
6724;DHT22;3399;52.530;13.304;2023-07-08T11:32:38;27.00;65.10
6724;DHT22;3399;52.530;13.304;2023-07-08T11:35:12;27.60;61.70
6724;DHT22;3399;52.530;13.304;2023-07-08T11:37:41;28.00;58.80
6724;DHT22;3399;52.530;13.304;2023-07-08T11:40:23;28.00;62.40
6724;DHT22;3399;52.530;13.304;2023-07-08T11:42:53;27.90;63.80
6724;DHT22;3399;52.530;13.304;2023-07-08T11:45:38;28.00;57.60
6724;DHT22;3399;52.530;13.304;2023-07-08T11:48:17;29.40;54.50
6724;DHT22;3399;52.530;13.304;2023-07-08T11:50:46;29.00;65.00
6724;DHT22;3399;52.530;13.304;2023-07-08T11:53:30;29.20;56.00
6724;DHT22;3399;52.530;13.304;2023-07-08T11:56:05;29.50;52.90
6724;DHT22;3399;52.530;13.304;2023-07-08T12:01:23;28.30;63.80
6724;DHT22;3399;52.530;13.304;2023-07-08T12:04:16;28.00;65.70
6724;DHT22;3399;52.530;13.304;2023-07-08T12:06:46;27.70;66.30
6724;DHT22;3399;52.530;13.304;2023-07-08T12:09:22;28.30;60.40
6724;DHT22;3399;52.530;13.304;2023-07-08T12:11:59;28.30;64.20
6724;DHT22;3399;52.530;13.304;2023-07-08T12:14:27;28.30;61.00
6724;DHT22;3399;52.530;13.304;2023-07-08T12:16:55;28.40;64.40
6724;DHT22;3399;52.530;13.304;2023-07-08T12:19:23;28.50;54.20
6724;DHT22;3399;52.530;13.304;2023-07-08T12:21:51;29.40;54.90
6724;DHT22;3399;52.530;13.304;2023-07-08T12:24:22;28.90;60.40
6724;DHT22;3399;52.530;13.304;2023-07-08T12:26:52;28.50;62.60
6724;DHT22;3399;52.530;13.304;2023-07-08T12:29:18;29.30;54.20
6724;DHT22;3399;52.530;13.304;2023-07-08T12:31:45;28.80;62.00
6724;DHT22;3399;52.530;13.304;2023-07-08T12:34:17;28.30;60.10
6724;DHT22;3399;52.530;13.304;2023-07-08T12:36:44;28.30;62.80
6724;DHT22;3399;52.530;13.304;2023-07-08T12:39:15;28.50;58.40
6724;DHT22;3399;52.530;13.304;2023-07-08T12:41:43;28.90;53.00
6724;DHT22;3399;52.530;13.304;2023-07-08T12:44:30;28.70;62.00
6724;DHT22;3399;52.530;13.304;2023-07-08T12:47:03;29.10;56.90
6724;DHT22;3399;52.530;13.304;2023-07-08T12:49:29;29.20;58.10
6724;DHT22;3399;52.530;13.304;2023-07-08T12:51:55;29.70;50.50
6724;DHT22;3399;52.530;13.304;2023-07-08T12:54:20;31.80;44.20
6724;DHT22;3399;52.530;13.304;2023-07-08T12:56:55;32.00;48.20
6724;DHT22;3399;52.530;13.304;2023-07-08T12:59:23;32.10;48.00
6724;DHT22;3399;52.530;13.304;2023-07-08T13:01:49;32.10;47.10
6724;DHT22;3399;52.530;13.304;2023-07-08T13:04:17;31.90;52.10
6724;DHT22;3399;52.530;13.304;2023-07-08T13:06:44;30.90;54.40
6724;DHT22;3399;52.530;13.304;2023-07-08T13:09:35;31.40;46.40
6724;DHT22;3399;52.530;13.304;2023-07-08T13:12:15;31.30;47.60
6724;DHT22;3399;52.530;13.304;2023-07-08T13:14:42;32.30;42.30
6724;DHT22;3399;52.530;13.304;2023-07-08T13:17:13;32.50;42.00
6724;DHT22;3399;52.530;13.304;2023-07-08T13:19:40;32.10;41.60
6724;DHT22;3399;52.530;13.304;2023-07-08T13:22:21;31.20;48.20
6724;DHT22;3399;52.530;13.304;2023-07-08T13:24:48;31.20;48.70
6724;DHT22;3399;52.530;13.304;2023-07-08T13:27:24;30.50;53.80
6724;DHT22;3399;52.530;13.304;2023-07-08T13:29:54;29.70;50.50
6724;DHT22;3399;52.530;13.304;2023-07-08T13:32:30;31.10;45.20
6724;DHT22;3399;52.530;13.304;2023-07-08T13:34:56;31.80;43.30
6724;DHT22;3399;52.530;13.304;2023-07-08T13:37:21;32.20;43.50
6724;DHT22;3399;52.530;13.304;2023-07-08T13:39:52;32.50;42.70
6724;DHT22;3399;52.530;13.304;2023-07-08T13:42:18;32.90;40.40
6724;DHT22;3399;52.530;13.304;2023-07-08T13:44:45;33.10;41.70
6724;DHT22;3399;52.530;13.304;2023-07-08T13:47:20;33.30;41.60
6724;DHT22;3399;52.530;13.304;2023-07-08T13:49:49;33.40;40.50
6724;DHT22;3399;52.530;13.304;2023-07-08T13:52:21;33.60;41.00
6724;DHT22;3399;52.530;13.304;2023-07-08T13:54:51;33.70;41.20
6724;DHT22;3399;52.530;13.304;2023-07-08T13:57:21;34.30;39.20
6724;DHT22;3399;52.530;13.304;2023-07-08T13:59:48;34.40;37.80
6724;DHT22;3399;52.530;13.304;2023-07-08T14:02:18;34.40;38.40
6724;DHT22;3399;52.530;13.304;2023-07-08T14:04:48;34.40;38.30
6724;DHT22;3399;52.530;13.304;2023-07-08T14:07:23;34.30;39.10
6724;DHT22;3399;52.530;13.304;2023-07-08T14:09:55;34.80;38.20
6724;DHT22;3399;52.530;13.304;2023-07-08T14:12:22;35.20;37.50
6724;DHT22;3399;52.530;13.304;2023-07-08T14:14:48;35.00;36.60
6724;DHT22;3399;52.530;13.304;2023-07-08T14:17:31;34.90;36.90
6724;DHT22;3399;52.530;13.304;2023-07-08T14:20:00;34.80;37.00
6724;DHT22;3399;52.530;13.304;2023-07-08T14:22:30;35.20;35.40
6724;DHT22;3399;52.530;13.304;2023-07-08T14:24:58;35.40;35.90
6724;DHT22;3399;52.530;13.304;2023-07-08T14:27:26;35.10;35.50
6724;DHT22;3399;52.530;13.304;2023-07-08T14:29:54;35.10;38.40
6724;DHT22;3399;52.530;13.304;2023-07-08T14:32:43;35.00;35.00
6724;DHT22;3399;52.530;13.304;2023-07-08T14:35:22;34.80;35.60
6724;DHT22;3399;52.530;13.304;2023-07-08T14:37:50;35.10;35.70
6724;DHT22;3399;52.530;13.304;2023-07-08T14:40:18;35.30;33.80
6724;DHT22;3399;52.530;13.304;2023-07-08T14:42:56;35.40;33.90
6724;DHT22;3399;52.530;13.304;2023-07-08T14:45:29;35.30;33.60
6724;DHT22;3399;52.530;13.304;2023-07-08T14:47:56;35.30;34.30
6724;DHT22;3399;52.530;13.304;2023-07-08T14:50:21;35.30;34.00
6724;DHT22;3399;52.530;13.304;2023-07-08T14:52:48;35.40;33.70
6724;DHT22;3399;52.530;13.304;2023-07-08T14:55:14;35.30;34.70
6724;DHT22;3399;52.530;13.304;2023-07-08T14:57:47;35.40;36.10
6724;DHT22;3399;52.530;13.304;2023-07-08T15:00:16;36.00;32.90
6724;DHT22;3399;52.530;13.304;2023-07-08T15:02:44;36.60;32.90
6724;DHT22;3399;52.530;13.304;2023-07-08T15:05:19;36.20;35.60
6724;DHT22;3399;52.530;13.304;2023-07-08T15:07:51;36.00;32.50
6724;DHT22;3399;52.530;13.304;2023-07-08T15:10:18;36.30;33.30
6724;DHT22;3399;52.530;13.304;2023-07-08T15:12:46;36.10;34.90
6724;DHT22;3399;52.530;13.304;2023-07-08T15:15:26;35.80;34.20
6724;DHT22;3399;52.530;13.304;2023-07-08T15:17:52;35.60;33.30
6724;DHT22;3399;52.530;13.304;2023-07-08T15:20:19;35.80;34.20
6724;DHT22;3399;52.530;13.304;2023-07-08T15:22:45;35.70;33.00
6724;DHT22;3399;52.530;13.304;2023-07-08T15:25:12;35.70;34.40
6724;DHT22;3399;52.530;13.304;2023-07-08T15:27:42;35.80;33.60
6724;DHT22;3399;52.530;13.304;2023-07-08T15:30:25;35.90;33.40
6724;DHT22;3399;52.530;13.304;2023-07-08T15:32:52;36.10;33.10
6724;DHT22;3399;52.530;13.304;2023-07-08T15:35:26;36.00;32.60
6724;DHT22;3399;52.530;13.304;2023-07-08T15:37:56;36.30;33.20
6724;DHT22;3399;52.530;13.304;2023-07-08T15:40:23;36.10;33.10
6724;DHT22;3399;52.530;13.304;2023-07-08T15:42:52;36.30;33.30
6724;DHT22;3399;52.530;13.304;2023-07-08T15:45:35;36.40;32.80
6724;DHT22;3399;52.530;13.304;2023-07-08T15:48:02;36.20;31.80
6724;DHT22;3399;52.530;13.304;2023-07-08T15:50:28;36.10;32.70
6724;DHT22;3399;52.530;13.304;2023-07-08T15:52:54;36.00;32.10
6724;DHT22;3399;52.530;13.304;2023-07-08T15:55:24;36.00;31.00
6724;DHT22;3399;52.530;13.304;2023-07-08T15:58:00;35.60;32.70
6724;DHT22;3399;52.530;13.304;2023-07-08T16:00:28;35.60;31.70
6724;DHT22;3399;52.530;13.304;2023-07-08T16:02:58;35.60;31.90
6724;DHT22;3399;52.530;13.304;2023-07-08T16:05:24;35.60;31.80
6724;DHT22;3399;52.530;13.304;2023-07-08T16:07:51;35.60;31.70
6724;DHT22;3399;52.530;13.304;2023-07-08T16:10:18;36.00;32.40
6724;DHT22;3399;52.530;13.304;2023-07-08T16:12:45;35.80;31.60
6724;DHT22;3399;52.530;13.304;2023-07-08T16:15:32;35.70;33.30
6724;DHT22;3399;52.530;13.304;2023-07-08T16:17:59;35.90;32.70
6724;DHT22;3399;52.530;13.304;2023-07-08T16:20:30;36.00;32.80
6724;DHT22;3399;52.530;13.304;2023-07-08T16:22:58;36.00;33.30
6724;DHT22;3399;52.530;13.304;2023-07-08T16:25:28;35.70;31.60
6724;DHT22;3399;52.530;13.304;2023-07-08T16:27:55;35.60;32.20
6724;DHT22;3399;52.530;13.304;2023-07-08T16:30:25;35.50;32.30
6724;DHT22;3399;52.530;13.304;2023-07-08T16:32:55;35.50;33.20
6724;DHT22;3399;52.530;13.304;2023-07-08T16:35:22;35.60;32.00
6724;DHT22;3399;52.530;13.304;2023-07-08T16:37:50;35.60;31.90
6724;DHT22;3399;52.530;13.304;2023-07-08T16:40:18;35.70;31.90
6724;DHT22;3399;52.530;13.304;2023-07-08T16:42:46;35.70;31.80
6724;DHT22;3399;52.530;13.304;2023-07-08T16:45:14;35.80;32.30
6724;DHT22;3399;52.530;13.304;2023-07-08T16:47:41;35.60;33.80
6724;DHT22;3399;52.530;13.304;2023-07-08T16:50:07;35.50;32.70
6724;DHT22;3399;52.530;13.304;2023-07-08T16:52:36;35.50;31.40
6724;DHT22;3399;52.530;13.304;2023-07-08T16:55:15;35.50;32.60